• Join FlightAware (Why Join?)
  • Login
  • US Flag 
10:30AM EDT


 

Airport Tracker/Info


-or-


 

Live Flight TrackerFlight Track Log ✈ SWA2966 ✈ 22-Apr-2013 ✈ KOAK - KONT

Flight Track Log - Related Links

Times and Time Zones

All times are in EDT time to prevent confusion due to time zone crossing. See the SWA2966 flight status page for this flight to view local times or setup timezone preferences in your user account.

Time Position Orientation Groundspeed Altitude Reporting Facility
EDT Latitude Longitude Course Direction KTS MPH feet Rate Location/Type
03:23PM 37.7333 -122.2500 299° West 149 171 1,800  Level Northern Cal TRACON
03:24PM 37.7508 -122.2903 299° West 179 206 3,700 2,880 Climbing Oakland Center
03:25PM 37.7619 -122.3581 282° West 206 237 7,400 3,240 Climbing Oakland Center
03:26PM 37.6922 -122.3853 197° South 260 299 10,400 2,820 Climbing Oakland Center
03:27PM 37.5753 -122.4150 191° South 369 425 13,200 3,060 Climbing Oakland Center
03:28PM 37.4922 -122.3233 139° Southeast 416 479 16,700 2,820 Climbing Oakland Center
03:29PM 37.4189 -122.2006 127° Southeast 438 504 19,000 1,620 Climbing Oakland Center
03:30PM 37.3408 -122.0786 129° Southeast 446 513 20,000 1,920 Climbing Oakland Center
03:31PM 37.2608 -121.9550 129° Southeast 456 525 23,000 2,880 Climbing Oakland Center
03:32PM 37.1733 -121.8158 128° Southeast 472 543 26,000 3,120 Climbing Oakland Center
03:33PM 37.0917 -121.6869 128° Southeast 474 545 29,400 2,820 Climbing Oakland Center
03:34PM 37.0156 -121.5719 130° Southeast 465 535 31,800 2,400 Climbing Oakland Center
03:35PM 36.9361 -121.4483 129° Southeast 458 527 34,400 2,400 Climbing Oakland Center
03:36PM 36.8414 -121.2992 128° Southeast 458 527 36,700 1,860 Climbing Oakland Center
03:37PM 36.7681 -121.1908 130° Southeast 456 525 38,300 1,080 Climbing Oakland Center
03:38PM 36.6886 -121.0664 129° Southeast 458 527 39,000 300 Climbing Oakland Center
03:39PM 36.6081 -120.9428 129° Southeast 460 529 39,000  Level Oakland Center
03:40PM 36.5261 -120.8214 130° Southeast 458 527 39,000  Level Oakland Center
03:41PM 36.4297 -120.6703 128° Southeast 463 533 39,000  Level Oakland Center
03:42PM 36.3481 -120.5483 130° Southeast 461 531 39,000  Level Oakland Center
03:43PM 36.2631 -120.4228 130° Southeast 477 549 39,000  Level Oakland Center
03:44PM 36.1800 -120.2994 130° Southeast 465 535 39,000  Level Oakland Center
03:45PM 36.0969 -120.1747 129° Southeast 467 537 39,000  Level Oakland Center
03:46PM 36.0147 -120.0517 130° Southeast 464 534 39,000  Level Oakland Center
03:47PM 35.9328 -119.9331 130° Southeast 455 524 39,000  Level Oakland Center
03:48PM 35.8492 -119.8111 130° Southeast 462 532 39,000  Level Oakland Center
03:49PM 35.7664 -119.6883 130° Southeast 463 533 39,000  Level Oakland Center
03:50PM 35.6817 -119.5647 130° Southeast 467 537 39,000  Level Oakland Center
03:51PM 35.5961 -119.4439 131° Southeast 467 537 39,000 -240 Level Oakland Center
03:52PM 35.5122 -119.3211 130° Southeast 468 539 38,600 -840 Descending Oakland Center
03:53PM 35.4108 -119.1758 131° Southeast 466 536 37,400 -1,140 Descending Oakland Center
03:53PM 35.3983 -119.1511 122° Southeast 466 536 37,200 -900 Descending Los Angeles Center
03:54PM 35.3147 -119.0292 130° Southeast 467 537 36,300 -960 Descending Los Angeles Center
03:55PM 35.2314 -118.9100 131° Southeast 465 535 35,300 -960 Descending Los Angeles Center
03:57PM 35.1458 -118.7900 131° Southeast 465 535 34,400 -960 Descending Los Angeles Center
03:58PM 35.0611 -118.6681 130° Southeast 469 540 33,400 -1,440 Descending Los Angeles Center
03:59PM 34.9575 -118.5231 131° Southeast 473 544 31,500 -1,380 Descending Los Angeles Center
04:00PM 34.8761 -118.4083 131° Southeast 467 537 30,600 -2,640 Descending Los Angeles Center
04:01PM 34.7906 -118.2878 131° Southeast 472 543 26,100 -3,600 Descending Los Angeles Center
04:02PM 34.7033 -118.1664 131° Southeast 480 552 23,200 -2,820 Descending Los Angeles Center
04:03PM 34.6125 -118.0256 128° Southeast 444 511 20,300 -2,640 Descending Los Angeles Center
04:04PM 34.5569 -117.9044 119° Southeast 418 481 17,800 -2,340 Descending Los Angeles Center
04:05PM 34.5031 -117.7878 119° Southeast 402 463 15,500 -1,860 Descending Los Angeles Center
04:06PM 34.4533 -117.6778 119° Southeast 379 436 14,000 -780 Descending Los Angeles Center
04:07PM 34.4050 -117.5731 119° Southeast 362 417 13,900 -720 Descending Los Angeles Center
04:08PM 34.3531 -117.4606 119° Southeast 336 387 12,600 -1,740 Descending Los Angeles Center
04:09PM 34.3111 -117.3683 119° Southeast 318 366 10,400 -2,100 Descending Los Angeles Center
04:10PM 34.2408 -117.3319 157° South 293 337 8,300 -1,740 Descending Los Angeles Center
04:11PM 34.1647 -117.3456 188° South 276 318 6,800 -1,680 Descending Los Angeles Center
04:12PM 34.0833 -117.3586 188° South 250 288 4,800 -1,560 Descending Los Angeles Center
04:13PM 34.0575 -117.4128 240° Southwest 228 262 3,600 -1,080 Descending Los Angeles Center
04:14PM 34.0500 -117.4833 263° West 180 207 2,500 -900 Descending Southern California TRACON
04:15PM 34.0500 -117.5333 270° West 134 154 1,700 -840 Descending Southern California TRACON
04:18PM 34.0500 -117.6000 270° West  Level FlightAware Approximate
04:25PM 34.0560 -117.6012 270° West  Level Estimated